Portada
METAR-TAF:

METAR-TAF

Aeroports :

Illa de Montserrat, Montserrat

latitud: 16-47-29N, longitud: 062-11-36W, altitud: 168 m

Observació

L'informe es va fer fa 51 minuts, a les 14:00 UTC
Vent 11 kt del Sud-Est
Temperatura 27°C
Humitat 84%
Pressió 1015 hPa
Visibilitat 10 km o més
Núvols disperses a una alçada de 1800 ft
xàfecs en les proximitats

METAR: TRPG 131400Z 13011KT 9999 VCSH SCT018 27/24 Q1015

Hora: 10:51 (14:51 UTC)

Pronòstic

L'informe es va fer fa 3 hores i 51 minuts, a les 11:00 UTC
Pronòstic vàlid del 13 a les 12 UTC al 14 a les 12 UTC
Vent 10 kt del Est
Visibilitat 10 km o més
Núvols disperses a una alçada de 2000 ft
Probabilitat 30% :
Temporalment
l' 13 a les 18 UTC al 14 a les 12 UTC
xàfecs de pluja

TAF: TRPG 131100Z 1312/1412 08010KT 9999 SCT020 PROB30 TEMPO 1318/1412 SHRA

Observacions i pronòstics meteorològics de més de 4000 aeroports (METAR i TAF).

Les estacions disponibles són els punts grocs i vermells al mapa.

Posi el ratolí al punt desitjat per veure el nom de l'estació.

Feu clic per veure les observacions i els pronòstics meteorològics.

Per canviar el mapa: feu clic els botons verds amb una creu de color negre per apropar; al botó verd amb un guió per allunyar la imatge; o en les fletxes verdes per a mapes adjacents.


METAR-TAF: